DLH6RL EGLL-EDDH
Flight info
| Callsign | DLH6RL |
|---|---|
| Flight time | 0h 52m |
| Altitude | 37000 |
| Route | BPK Q295 SOMVA DCT MAVAS DCT VALAM DCT GASTU DCT OSTOR/N0363F230 T904 RIBSO RIBSO3P |
| Aircraft | A320/M-SDE3FGHIRWY/LB1 |
Departure
| Time | 2026-04-24 12:47 |
|---|---|
| Airport | London Heathrow Airport (EGLL) |
Arrival
| Time | 2026-04-24 13:40 |
|---|---|
| Airport | Hamburg Helmut Schmidt Airport (EDDH) |
| Time | Latitude | Longitude | Altitude | Speed | Heading |
|---|---|---|---|---|---|
| 2026-04-24 12:23 | 51.46827 | -0.45112 | 86 ft | 0 kts | 359° |
| 2026-04-24 12:32 | 51.46826 | -0.45112 | 86 ft | 0 kts | 359° |
| 2026-04-24 12:32 | 51.46804 | -0.45112 | 93 ft | 4 kts | 359° |
| 2026-04-24 12:33 | 51.46781 | -0.45111 | 86 ft | 4 kts | 350° |
| 2026-04-24 12:33 | 51.46759 | -0.45095 | 86 ft | 4 kts | 303° |
| 2026-04-24 12:33 | 51.46751 | -0.45056 | 86 ft | 4 kts | 272° |
| 2026-04-24 12:33 | 51.46751 | -0.45016 | 86 ft | 4 kts | 269° |
| 2026-04-24 12:34 | 51.46751 | -0.45004 | 86 ft | 0 kts | 269° |
| 2026-04-24 12:36 | 51.46751 | -0.45033 | 86 ft | 7 kts | 270° |
| 2026-04-24 12:37 | 51.46750 | -0.45106 | 86 ft | 8 kts | 269° |
| 2026-04-24 12:37 | 51.46750 | -0.45220 | 86 ft | 12 kts | 269° |
| 2026-04-24 12:37 | 51.46749 | -0.45366 | 86 ft | 14 kts | 271° |
| 2026-04-24 12:37 | 51.46749 | -0.45520 | 86 ft | 14 kts | 269° |
| 2026-04-24 12:38 | 51.46749 | -0.45683 | 86 ft | 15 kts | 270° |
| 2026-04-24 12:38 | 51.46748 | -0.45846 | 86 ft | 15 kts | 269° |
| 2026-04-24 12:38 | 51.46747 | -0.46017 | 86 ft | 16 kts | 270° |
| 2026-04-24 12:39 | 51.46747 | -0.46761 | 86 ft | 28 kts | 270° |
| 2026-04-24 12:39 | 51.46746 | -0.47097 | 86 ft | 32 kts | 270° |
| 2026-04-24 12:39 | 51.46745 | -0.47473 | 86 ft | 35 kts | 269° |
| 2026-04-24 12:40 | 51.46744 | -0.47870 | 86 ft | 30 kts | 270° |
| 2026-04-24 12:40 | 51.46743 | -0.48105 | 86 ft | 0 kts | 270° |
| 2026-04-24 12:40 | 51.46743 | -0.48110 | 86 ft | 3 kts | 270° |
| 2026-04-24 12:41 | 51.46741 | -0.48231 | 86 ft | 12 kts | 269° |
| 2026-04-24 12:41 | 51.46743 | -0.48359 | 86 ft | 11 kts | 270° |
| 2026-04-24 12:41 | 51.46741 | -0.48432 | 87 ft | 5 kts | 262° |
| 2026-04-24 12:41 | 51.46722 | -0.48465 | 90 ft | 4 kts | 195° |
| 2026-04-24 12:42 | 51.46700 | -0.48467 | 88 ft | 3 kts | 181° |
| 2026-04-24 12:42 | 51.46693 | -0.48467 | 87 ft | 0 kts | 180° |
| 2026-04-24 12:42 | 51.46688 | -0.48468 | 86 ft | 4 kts | 180° |
| 2026-04-24 12:43 | 51.46668 | -0.48468 | 86 ft | 0 kts | 180° |
| 2026-04-24 12:43 | 51.46648 | -0.48467 | 86 ft | 11 kts | 179° |
| 2026-04-24 12:43 | 51.46591 | -0.48467 | 86 ft | 0 kts | 180° |
| 2026-04-24 12:45 | 51.46531 | -0.48466 | 86 ft | 17 kts | 179° |
| 2026-04-24 12:45 | 51.46479 | -0.48382 | 87 ft | 12 kts | 92° |
| 2026-04-24 12:45 | 51.46479 | -0.48353 | 87 ft | 0 kts | 90° |
| 2026-04-24 12:46 | 51.46481 | -0.48164 | 88 ft | 51 kts | 89° |
| 2026-04-24 12:47 | 51.46484 | -0.47215 | 88 ft | 116 kts | 89° |
| 2026-04-24 12:47 | 51.46492 | -0.45653 | 173 ft | 157 kts | 88° |
| 2026-04-24 12:47 | 51.46499 | -0.43809 | 667 ft | 173 kts | 88° |
| 2026-04-24 12:47 | 51.46567 | -0.41829 | 1278 ft | 189 kts | 76° |
| 2026-04-24 12:48 | 51.47262 | -0.39900 | 1728 ft | 215 kts | 51° |
| 2026-04-24 12:48 | 51.48282 | -0.37961 | 2278 ft | 238 kts | 52° |
| 2026-04-24 12:48 | 51.49381 | -0.35887 | 3113 ft | 248 kts | 51° |
| 2026-04-24 12:48 | 51.50511 | -0.33751 | 4082 ft | 253 kts | 51° |
| 2026-04-24 12:49 | 51.51658 | -0.31565 | 5122 ft | 256 kts | 53° |
| 2026-04-24 12:49 | 51.52538 | -0.29045 | 5747 ft | 262 kts | 71° |
| 2026-04-24 12:49 | 51.53265 | -0.26353 | 6173 ft | 265 kts | 64° |
| 2026-04-24 12:49 | 51.54189 | -0.23784 | 6608 ft | 266 kts | 62° |
| 2026-04-24 12:50 | 51.55150 | -0.21224 | 7035 ft | 269 kts | 60° |
| 2026-04-24 12:50 | 51.56116 | -0.18626 | 7441 ft | 272 kts | 61° |
| 2026-04-24 12:50 | 51.57095 | -0.16012 | 7889 ft | 274 kts | 61° |
| 2026-04-24 12:50 | 51.58075 | -0.13388 | 8312 ft | 275 kts | 61° |
| 2026-04-24 12:51 | 51.59040 | -0.10766 | 8742 ft | 277 kts | 60° |
| 2026-04-24 12:51 | 51.60043 | -0.08070 | 9184 ft | 278 kts | 62° |
| 2026-04-24 12:51 | 51.61037 | -0.05388 | 9624 ft | 281 kts | 61° |
| 2026-04-24 12:51 | 51.62007 | -0.02689 | 10064 ft | 283 kts | 65° |
| 2026-04-24 12:52 | 51.62887 | 0.00153 | 10476 ft | 288 kts | 65° |
| 2026-04-24 12:52 | 51.63758 | 0.03182 | 10893 ft | 307 kts | 67° |
| 2026-04-24 12:52 | 51.64659 | 0.06416 | 11335 ft | 324 kts | 68° |
| 2026-04-24 12:52 | 51.65591 | 0.09774 | 12020 ft | 332 kts | 67° |
| 2026-04-24 12:53 | 51.66545 | 0.13192 | 12747 ft | 338 kts | 66° |
| 2026-04-24 12:53 | 51.67517 | 0.16663 | 13483 ft | 343 kts | 68° |
| 2026-04-24 12:53 | 51.68510 | 0.20192 | 14196 ft | 349 kts | 66° |
| 2026-04-24 12:53 | 51.69523 | 0.23780 | 14828 ft | 354 kts | 68° |
| 2026-04-24 12:54 | 51.70550 | 0.27415 | 15461 ft | 358 kts | 68° |
| 2026-04-24 12:54 | 51.71587 | 0.31092 | 16114 ft | 362 kts | 67° |
| 2026-04-24 12:54 | 51.72633 | 0.34810 | 16753 ft | 367 kts | 67° |
| 2026-04-24 12:54 | 51.73690 | 0.38575 | 17412 ft | 370 kts | 68° |
| 2026-04-24 12:55 | 51.74756 | 0.42383 | 18054 ft | 375 kts | 67° |
| 2026-04-24 12:55 | 51.75836 | 0.46242 | 18691 ft | 378 kts | 68° |
| 2026-04-24 12:55 | 51.76922 | 0.50126 | 19212 ft | 383 kts | 67° |
| 2026-04-24 12:55 | 51.78023 | 0.54066 | 19742 ft | 387 kts | 67° |
| 2026-04-24 12:56 | 51.79119 | 0.58001 | 20273 ft | 391 kts | 67° |
| 2026-04-24 12:56 | 51.80242 | 0.62033 | 20810 ft | 396 kts | 67° |
| 2026-04-24 12:56 | 51.81372 | 0.66110 | 21355 ft | 398 kts | 68° |
| 2026-04-24 12:56 | 51.82475 | 0.70223 | 21930 ft | 400 kts | 68° |
| 2026-04-24 12:57 | 51.83557 | 0.74391 | 22465 ft | 404 kts | 69° |
| 2026-04-24 12:57 | 51.84632 | 0.78605 | 22970 ft | 407 kts | 69° |
| 2026-04-24 12:57 | 51.85712 | 0.82859 | 23484 ft | 411 kts | 69° |
| 2026-04-24 12:57 | 51.86805 | 0.87145 | 23971 ft | 414 kts | 69° |
| 2026-04-24 12:58 | 51.87911 | 0.91477 | 24365 ft | 418 kts | 69° |
| 2026-04-24 12:58 | 51.89028 | 0.95844 | 24734 ft | 422 kts | 69° |
| 2026-04-24 12:58 | 51.89774 | 0.98752 | 24971 ft | 424 kts | 68° |
| 2026-04-24 12:58 | 51.90913 | 1.03186 | 25357 ft | 428 kts | 68° |
| 2026-04-24 12:59 | 51.92064 | 1.07656 | 25714 ft | 432 kts | 68° |
| 2026-04-24 12:59 | 51.93224 | 1.12167 | 26066 ft | 436 kts | 68° |
| 2026-04-24 12:59 | 51.94391 | 1.16727 | 26417 ft | 440 kts | 68° |
| 2026-04-24 12:59 | 51.95560 | 1.21328 | 26776 ft | 444 kts | 68° |
| 2026-04-24 13:00 | 51.96739 | 1.25988 | 27122 ft | 447 kts | 68° |
| 2026-04-24 13:00 | 51.97921 | 1.30679 | 27456 ft | 451 kts | 68° |
| 2026-04-24 13:00 | 51.99113 | 1.35409 | 27787 ft | 455 kts | 68° |
| 2026-04-24 13:00 | 52.00317 | 1.40180 | 28126 ft | 459 kts | 68° |
| 2026-04-24 13:01 | 52.01531 | 1.44990 | 28455 ft | 463 kts | 68° |
| 2026-04-24 13:01 | 52.02751 | 1.49843 | 28795 ft | 466 kts | 68° |
| 2026-04-24 13:01 | 52.03974 | 1.54731 | 29168 ft | 468 kts | 68° |
| 2026-04-24 13:01 | 52.05201 | 1.59657 | 29512 ft | 472 kts | 68° |
| 2026-04-24 13:02 | 52.06435 | 1.64614 | 29834 ft | 475 kts | 68° |
| 2026-04-24 13:02 | 52.07663 | 1.69544 | 30136 ft | 479 kts | 68° |
| 2026-04-24 13:02 | 52.08932 | 1.74648 | 30440 ft | 482 kts | 68° |
| 2026-04-24 13:02 | 52.10185 | 1.79711 | 30690 ft | 485 kts | 68° |
| 2026-04-24 13:03 | 52.11430 | 1.84759 | 30956 ft | 487 kts | 68° |
| 2026-04-24 13:03 | 52.12689 | 1.89880 | 31225 ft | 489 kts | 68° |
| 2026-04-24 13:03 | 52.13955 | 1.95035 | 31490 ft | 491 kts | 68° |
| 2026-04-24 13:03 | 52.15225 | 2.00212 | 31750 ft | 493 kts | 68° |
| 2026-04-24 13:04 | 52.16497 | 2.05402 | 32083 ft | 493 kts | 68° |
| 2026-04-24 13:04 | 52.17765 | 2.10590 | 32474 ft | 492 kts | 69° |
| 2026-04-24 13:04 | 52.19029 | 2.15782 | 32851 ft | 491 kts | 69° |
| 2026-04-24 13:04 | 52.20282 | 2.20948 | 33197 ft | 491 kts | 69° |
| 2026-04-24 13:05 | 52.21538 | 2.26135 | 33575 ft | 490 kts | 69° |
| 2026-04-24 13:05 | 52.22791 | 2.31306 | 33937 ft | 490 kts | 69° |
| 2026-04-24 13:05 | 52.24041 | 2.36475 | 34297 ft | 490 kts | 69° |
| 2026-04-24 13:05 | 52.25287 | 2.41652 | 34623 ft | 489 kts | 69° |
| 2026-04-24 13:06 | 52.26522 | 2.46807 | 34953 ft | 489 kts | 69° |
| 2026-04-24 13:06 | 52.27762 | 2.51984 | 35215 ft | 489 kts | 69° |
| 2026-04-24 13:06 | 52.28999 | 2.57163 | 35509 ft | 489 kts | 69° |
| 2026-04-24 13:06 | 52.30233 | 2.62331 | 35808 ft | 488 kts | 69° |
| 2026-04-24 13:07 | 52.31302 | 2.67582 | 36086 ft | 487 kts | 75° |
| 2026-04-24 13:07 | 52.32238 | 2.72881 | 36364 ft | 486 kts | 75° |
| 2026-04-24 13:07 | 52.33168 | 2.78188 | 36642 ft | 485 kts | 75° |
| 2026-04-24 13:07 | 52.34086 | 2.83429 | 36913 ft | 484 kts | 74° |
| 2026-04-24 13:08 | 52.35014 | 2.88721 | 37174 ft | 484 kts | 74° |
| 2026-04-24 13:08 | 52.35940 | 2.94015 | 37327 ft | 483 kts | 74° |
| 2026-04-24 13:08 | 52.36860 | 2.99294 | 37342 ft | 481 kts | 74° |
| 2026-04-24 13:09 | 52.39613 | 3.15023 | 37349 ft | 479 kts | 71° |
| 2026-04-24 13:09 | 52.42333 | 3.24959 | 37342 ft | 478 kts | 63° |
| 2026-04-24 13:10 | 52.45252 | 3.34742 | 37343 ft | 478 kts | 63° |
| 2026-04-24 13:10 | 52.48161 | 3.44561 | 37354 ft | 478 kts | 64° |
| 2026-04-24 13:11 | 52.51041 | 3.54379 | 37337 ft | 478 kts | 64° |
| 2026-04-24 13:11 | 52.53918 | 3.64216 | 37338 ft | 478 kts | 64° |
| 2026-04-24 13:12 | 52.56795 | 3.74071 | 37335 ft | 478 kts | 64° |
| 2026-04-24 13:12 | 52.59665 | 3.83926 | 37330 ft | 478 kts | 64° |
| 2026-04-24 13:13 | 52.62511 | 3.93742 | 37337 ft | 478 kts | 64° |
| 2026-04-24 13:13 | 52.67551 | 4.11259 | 37335 ft | 478 kts | 64° |
| 2026-04-24 13:14 | 52.78836 | 4.50902 | 37331 ft | 477 kts | 65° |
| 2026-04-24 13:14 | 52.89957 | 4.90696 | 37322 ft | 477 kts | 65° |
| 2026-04-24 13:15 | 53.00969 | 5.30774 | 37318 ft | 477 kts | 66° |
| 2026-04-24 13:15 | 53.11083 | 5.71538 | 37301 ft | 477 kts | 69° |
| 2026-04-24 13:16 | 53.20831 | 6.12358 | 37322 ft | 476 kts | 69° |
| 2026-04-24 13:16 | 53.30543 | 6.53871 | 37294 ft | 477 kts | 69° |
| 2026-04-24 13:17 | 53.40055 | 6.95365 | 37270 ft | 478 kts | 69° |
| 2026-04-24 13:17 | 53.49475 | 7.37296 | 37261 ft | 481 kts | 69° |
| 2026-04-24 13:18 | 53.58779 | 7.79492 | 37277 ft | 481 kts | 69° |
| 2026-04-24 13:18 | 53.67514 | 8.22122 | 37230 ft | 481 kts | 72° |
| 2026-04-24 13:19 | 53.71535 | 8.43667 | 36552 ft | 491 kts | 71° |
| 2026-04-24 13:19 | 53.75701 | 8.65850 | 32491 ft | 485 kts | 71° |
| 2026-04-24 13:19 | 53.79417 | 8.85945 | 28990 ft | 451 kts | 71° |
| 2026-04-24 13:19 | 53.80329 | 8.90907 | 28035 ft | 444 kts | 71° |
| 2026-04-24 13:20 | 53.81234 | 8.95860 | 27080 ft | 437 kts | 71° |
| 2026-04-24 13:20 | 53.82120 | 9.00738 | 25928 ft | 432 kts | 71° |
| 2026-04-24 13:20 | 53.82762 | 9.05811 | 24057 ft | 451 kts | 85° |
| 2026-04-24 13:20 | 53.82623 | 9.11166 | 22261 ft | 459 kts | 95° |
| 2026-04-24 13:21 | 53.82312 | 9.16579 | 20436 ft | 464 kts | 94° |
| 2026-04-24 13:21 | 53.81993 | 9.21998 | 19009 ft | 460 kts | 94° |
| 2026-04-24 13:21 | 53.81672 | 9.27341 | 17659 ft | 451 kts | 94° |
| 2026-04-24 13:21 | 53.81394 | 9.32569 | 16319 ft | 440 kts | 89° |
| 2026-04-24 13:22 | 53.81703 | 9.37619 | 15090 ft | 425 kts | 75° |
| 2026-04-24 13:22 | 53.82281 | 9.42474 | 13840 ft | 416 kts | 75° |
| 2026-04-24 13:22 | 53.82856 | 9.47221 | 12521 ft | 407 kts | 75° |
| 2026-04-24 13:22 | 53.83421 | 9.51862 | 11241 ft | 399 kts | 75° |
| 2026-04-24 13:23 | 53.83974 | 9.56413 | 10124 ft | 389 kts | 74° |
| 2026-04-24 13:23 | 53.84496 | 9.60763 | 9562 ft | 364 kts | 74° |
| 2026-04-24 13:23 | 53.84973 | 9.64794 | 9280 ft | 335 kts | 74° |
| 2026-04-24 13:23 | 53.85420 | 9.68575 | 8604 ft | 323 kts | 74° |
| 2026-04-24 13:24 | 53.85856 | 9.72225 | 7822 ft | 318 kts | 73° |
| 2026-04-24 13:24 | 53.86293 | 9.75863 | 7035 ft | 313 kts | 73° |
| 2026-04-24 13:24 | 53.86659 | 9.79476 | 6245 ft | 311 kts | 82° |
| 2026-04-24 13:24 | 53.86530 | 9.83134 | 5496 ft | 309 kts | 93° |
| 2026-04-24 13:25 | 53.86279 | 9.86671 | 5116 ft | 297 kts | 93° |
| 2026-04-24 13:25 | 53.86032 | 9.90063 | 5010 ft | 281 kts | 93° |
| 2026-04-24 13:25 | 53.85800 | 9.93249 | 5017 ft | 264 kts | 93° |
| 2026-04-24 13:25 | 53.85582 | 9.96239 | 5020 ft | 248 kts | 92° |
| 2026-04-24 13:26 | 53.85375 | 9.99110 | 5024 ft | 245 kts | 92° |
| 2026-04-24 13:26 | 53.85173 | 10.01967 | 5017 ft | 244 kts | 92° |
| 2026-04-24 13:26 | 53.84973 | 10.04794 | 4894 ft | 244 kts | 92° |
| 2026-04-24 13:26 | 53.84768 | 10.07651 | 4762 ft | 244 kts | 92° |
| 2026-04-24 13:27 | 53.84565 | 10.10498 | 4629 ft | 243 kts | 92° |
| 2026-04-24 13:27 | 53.84362 | 10.13340 | 4482 ft | 243 kts | 92° |
| 2026-04-24 13:27 | 53.84190 | 10.16182 | 4366 ft | 241 kts | 85° |
| 2026-04-24 13:27 | 53.84407 | 10.18951 | 4236 ft | 235 kts | 69° |
| 2026-04-24 13:28 | 53.85064 | 10.21434 | 4108 ft | 229 kts | 53° |
| 2026-04-24 13:28 | 53.86042 | 10.23532 | 4016 ft | 226 kts | 45° |
| 2026-04-24 13:28 | 53.87052 | 10.25568 | 4005 ft | 225 kts | 45° |
| 2026-04-24 13:28 | 53.88060 | 10.27605 | 4007 ft | 226 kts | 46° |
| 2026-04-24 13:29 | 53.89072 | 10.29657 | 4006 ft | 227 kts | 46° |
| 2026-04-24 13:29 | 53.90088 | 10.31723 | 4003 ft | 227 kts | 46° |
| 2026-04-24 13:29 | 53.91097 | 10.33780 | 3999 ft | 227 kts | 46° |
| 2026-04-24 13:29 | 53.92112 | 10.35849 | 4002 ft | 227 kts | 46° |
| 2026-04-24 13:30 | 53.93122 | 10.37910 | 3999 ft | 227 kts | 46° |
| 2026-04-24 13:30 | 53.94132 | 10.39970 | 4003 ft | 228 kts | 46° |
| 2026-04-24 13:30 | 53.95112 | 10.42038 | 4001 ft | 228 kts | 53° |
| 2026-04-24 13:30 | 53.95579 | 10.44628 | 4002 ft | 238 kts | 87° |
| 2026-04-24 13:31 | 53.95100 | 10.47330 | 4004 ft | 246 kts | 123° |
| 2026-04-24 13:31 | 53.93868 | 10.49360 | 4011 ft | 248 kts | 139° |
| 2026-04-24 13:31 | 53.92508 | 10.51156 | 3980 ft | 250 kts | 149° |
| 2026-04-24 13:31 | 53.90858 | 10.51952 | 3984 ft | 248 kts | 181° |
| 2026-04-24 13:32 | 53.89208 | 10.51299 | 3986 ft | 242 kts | 211° |
| 2026-04-24 13:32 | 53.87956 | 10.49474 | 3988 ft | 238 kts | 235° |
| 2026-04-24 13:32 | 53.86832 | 10.47332 | 3986 ft | 241 kts | 231° |
| 2026-04-24 13:32 | 53.85740 | 10.45246 | 3985 ft | 236 kts | 233° |
| 2026-04-24 13:33 | 53.84687 | 10.43099 | 3985 ft | 237 kts | 235° |
| 2026-04-24 13:33 | 53.83642 | 10.40939 | 3990 ft | 237 kts | 234° |
| 2026-04-24 13:33 | 53.82595 | 10.38781 | 3992 ft | 237 kts | 234° |
| 2026-04-24 13:33 | 53.81547 | 10.36623 | 3989 ft | 239 kts | 235° |
| 2026-04-24 13:34 | 53.80493 | 10.34455 | 3984 ft | 233 kts | 235° |
| 2026-04-24 13:34 | 53.79494 | 10.32410 | 3984 ft | 221 kts | 236° |
| 2026-04-24 13:34 | 53.78528 | 10.30423 | 4016 ft | 217 kts | 235° |
| 2026-04-24 13:34 | 53.77573 | 10.28463 | 4037 ft | 216 kts | 237° |
| 2026-04-24 13:35 | 53.76618 | 10.26502 | 4014 ft | 217 kts | 237° |
| 2026-04-24 13:35 | 53.75660 | 10.24541 | 3808 ft | 214 kts | 234° |
| 2026-04-24 13:35 | 53.74728 | 10.22633 | 3549 ft | 212 kts | 234° |
| 2026-04-24 13:35 | 53.73791 | 10.20719 | 3271 ft | 209 kts | 237° |
| 2026-04-24 13:36 | 53.72888 | 10.18873 | 2996 ft | 200 kts | 236° |
| 2026-04-24 13:36 | 53.72014 | 10.17092 | 2732 ft | 193 kts | 237° |
| 2026-04-24 13:36 | 53.71176 | 10.15383 | 2486 ft | 185 kts | 236° |
| 2026-04-24 13:36 | 53.70372 | 10.13744 | 2226 ft | 176 kts | 237° |
| 2026-04-24 13:37 | 53.69609 | 10.12189 | 1982 ft | 168 kts | 236° |
| 2026-04-24 13:37 | 53.68874 | 10.10691 | 1759 ft | 163 kts | 236° |
| 2026-04-24 13:37 | 53.68162 | 10.09240 | 1527 ft | 158 kts | 238° |
| 2026-04-24 13:37 | 53.67488 | 10.07873 | 1333 ft | 144 kts | 237° |
| 2026-04-24 13:38 | 53.66863 | 10.06602 | 1142 ft | 138 kts | 238° |
| 2026-04-24 13:38 | 53.66262 | 10.05377 | 938 ft | 133 kts | 237° |
| 2026-04-24 13:38 | 53.65672 | 10.04178 | 749 ft | 132 kts | 237° |
| 2026-04-24 13:38 | 53.65087 | 10.02989 | 567 ft | 130 kts | 236° |
| 2026-04-24 13:39 | 53.64516 | 10.01828 | 388 ft | 127 kts | 234° |
| 2026-04-24 13:39 | 53.63967 | 10.00674 | 194 ft | 125 kts | 235° |
| 2026-04-24 13:39 | 53.63415 | 9.99560 | 49 ft | 122 kts | 229° |
| 2026-04-24 13:39 | 53.62983 | 9.98699 | 50 ft | 51 kts | 229° |
| 2026-04-24 13:40 | 53.62797 | 9.98493 | 50 ft | 18 kts | 195° |
| 2026-04-24 13:40 | 53.62750 | 9.98478 | 51 ft | 0 kts | 179° |
| 2026-04-24 13:41 | 53.62741 | 9.98478 | 51 ft | 4 kts | 179° |
| 2026-04-24 13:41 | 53.62718 | 9.98484 | 51 ft | 0 kts | 156° |
| 2026-04-24 13:42 | 53.62708 | 9.98496 | 51 ft | 9 kts | 141° |
| 2026-04-24 13:42 | 53.62725 | 9.98615 | 51 ft | 11 kts | 54° |
| 2026-04-24 13:43 | 53.62773 | 9.98713 | 50 ft | 11 kts | 50° |
| 2026-04-24 13:43 | 53.62822 | 9.98812 | 50 ft | 11 kts | 50° |
| 2026-04-24 13:43 | 53.62876 | 9.98925 | 50 ft | 19 kts | 50° |
| 2026-04-24 13:43 | 53.62968 | 9.99117 | 50 ft | 21 kts | 51° |
| 2026-04-24 13:44 | 53.63056 | 9.99301 | 50 ft | 22 kts | 52° |
| 2026-04-24 13:44 | 53.63169 | 9.99557 | 49 ft | 29 kts | 54° |
| 2026-04-24 13:44 | 53.63296 | 9.99799 | 50 ft | 27 kts | 51° |
| 2026-04-24 13:44 | 53.63409 | 10.00025 | 50 ft | 21 kts | 50° |
| 2026-04-24 13:45 | 53.63400 | 10.00195 | 51 ft | 14 kts | 129° |
| 2026-04-24 13:45 | 53.63341 | 10.00232 | 51 ft | 5 kts | 174° |
| 2026-04-24 13:45 | 53.63310 | 10.00236 | 51 ft | 4 kts | 176° |
| 2026-04-24 13:45 | 53.63282 | 10.00239 | 51 ft | 4 kts | 176° |
| 2026-04-24 13:46 | 53.63254 | 10.00242 | 51 ft | 7 kts | 175° |
| 2026-04-24 13:46 | 53.63176 | 10.00252 | 51 ft | 12 kts | 176° |
| 2026-04-24 13:46 | 53.63118 | 10.00265 | 51 ft | 5 kts | 148° |
| 2026-04-24 13:46 | 53.63111 | 10.00318 | 51 ft | 4 kts | 91° |
| 2026-04-24 13:47 | 53.63112 | 10.00362 | 49 ft | 1 kts | 86° |
| 2026-04-24 13:47 | 53.63113 | 10.00371 | 51 ft | 0 kts | 87° |